createdAt,value
2018-10-09T00:00:58.063Z,3.37
2018-10-09T00:03:26.604Z,3.10
2018-10-09T00:05:55.113Z,4.43
2018-10-09T00:08:23.480Z,4.03
2018-10-09T00:10:51.994Z,4.70
2018-10-09T00:13:21.504Z,5.90
2018-10-09T00:15:49.939Z,4.93
2018-10-09T00:18:18.356Z,3.53
2018-10-09T00:20:47.208Z,3.50
2018-10-09T00:23:15.966Z,3.10
2018-10-09T00:25:44.542Z,4.10
2018-10-09T00:28:13.760Z,4.43
2018-10-09T00:30:42.297Z,4.53
2018-10-09T00:33:14.421Z,4.87
2018-10-09T00:35:42.992Z,4.50
2018-10-09T00:38:12.056Z,3.57
2018-10-09T00:40:40.514Z,3.70
2018-10-09T00:43:09.005Z,3.73
2018-10-09T00:45:37.364Z,4.20
2018-10-09T00:48:06.611Z,3.60
2018-10-09T00:50:35.181Z,5.00
2018-10-09T00:53:04.608Z,4.73
2018-10-09T00:55:32.985Z,3.90
2018-10-09T00:58:01.324Z,3.67
2018-10-09T01:00:29.909Z,4.93
2018-10-09T01:03:00.282Z,4.30
2018-10-09T01:05:29.480Z,3.37
2018-10-09T01:08:02.738Z,3.80
2018-10-09T01:10:31.628Z,4.43
2018-10-09T01:12:59.961Z,4.90
2018-10-09T01:15:28.764Z,4.20
2018-10-09T01:17:58.877Z,4.97
2018-10-09T01:20:32.580Z,4.27
2018-10-09T01:23:01.872Z,5.03
2018-10-09T01:25:31.487Z,4.13
2018-10-09T01:27:59.987Z,3.37
2018-10-09T01:30:28.735Z,5.47
2018-10-09T01:32:57.170Z,4.47
2018-10-09T01:35:25.987Z,3.73
2018-10-09T01:37:54.587Z,3.47
2018-10-09T01:40:22.925Z,4.67
2018-10-09T01:42:56.451Z,4.20
2018-10-09T01:45:25.032Z,5.97
2018-10-09T01:47:53.906Z,5.53
2018-10-09T01:50:22.377Z,7.03
2018-10-09T01:52:51.136Z,4.30
2018-10-09T01:55:20.464Z,5.40
2018-10-09T01:57:49.746Z,3.70
2018-10-09T02:00:18.154Z,6.10
2018-10-09T02:02:46.912Z,3.87
2018-10-09T02:05:15.408Z,4.97
2018-10-09T02:07:43.891Z,5.57
2018-10-09T02:10:12.995Z,3.77
2018-10-09T02:12:44.880Z,4.37
2018-10-09T02:15:14.085Z,3.60
2018-10-09T02:17:44.489Z,4.53
2018-10-09T02:20:12.845Z,5.37
2018-10-09T02:22:41.892Z,6.43
2018-10-09T02:25:10.365Z,5.47
2018-10-09T02:27:42.120Z,5.53
2018-10-09T02:30:14.473Z,4.20
2018-10-09T02:32:43.235Z,4.80
2018-10-09T02:35:11.627Z,4.47
2018-10-09T02:37:40.140Z,5.27
2018-10-09T02:40:08.751Z,4.00
2018-10-09T02:42:37.624Z,10.23
2018-10-09T02:45:06.941Z,6.33
2018-10-09T02:47:35.276Z,5.00
2018-10-09T02:50:04.668Z,3.63
2018-10-09T02:52:33.176Z,4.13
2018-10-09T02:55:02.568Z,5.50
2018-10-09T02:57:31.824Z,4.90
2018-10-09T03:00:02.532Z,5.20
2018-10-09T03:02:31.031Z,6.40
2018-10-09T03:05:00.586Z,5.77
2018-10-09T03:07:28.916Z,5.80
2018-10-09T03:09:57.250Z,5.17
2018-10-09T03:12:25.597Z,5.23
2018-10-09T03:14:53.988Z,4.03
2018-10-09T03:17:24.027Z,5.70
2018-10-09T03:19:53.354Z,4.87
2018-10-09T03:22:23.182Z,6.60
2018-10-09T03:24:51.717Z,5.10
2018-10-09T03:27:20.544Z,4.70
2018-10-09T03:29:49.776Z,4.97
2018-10-09T03:32:18.280Z,6.70
2018-10-09T03:34:50.497Z,5.80
2018-10-09T03:37:19.243Z,5.23
2018-10-09T03:39:51.740Z,6.70
2018-10-09T03:42:20.116Z,5.63
2018-10-09T03:44:50.948Z,5.83
2018-10-09T03:47:19.555Z,7.27
2018-10-09T03:49:50.560Z,5.20
2018-10-09T03:52:19.144Z,4.50
2018-10-09T03:54:50.716Z,7.17
2018-10-09T03:57:20.152Z,8.03
2018-10-09T03:59:48.522Z,4.97
2018-10-09T04:02:16.953Z,4.90
2018-10-09T04:04:46.248Z,5.03
2018-10-09T04:07:15.703Z,8.23
2018-10-09T04:09:44.389Z,5.57
2018-10-09T04:12:12.904Z,5.27
2018-10-09T04:14:41.329Z,5.67
2018-10-09T04:17:14.793Z,6.33
2018-10-09T04:19:43.316Z,5.50
2018-10-09T04:22:17.194Z,6.03
2018-10-09T04:24:45.584Z,6.40
2018-10-09T04:27:14.105Z,7.27
2018-10-09T04:29:42.934Z,7.00
2018-10-09T04:32:11.520Z,5.43
2018-10-09T04:34:44.658Z,5.87
2018-10-09T04:37:13.648Z,7.10
2018-10-09T04:39:44.928Z,6.13
2018-10-09T04:42:15.301Z,5.70
2018-10-09T04:44:43.885Z,6.53
2018-10-09T04:47:13.173Z,5.70
2018-10-09T04:49:41.677Z,7.23
2018-10-09T04:52:10.592Z,7.17
2018-10-09T04:54:39.189Z,7.17
2018-10-09T04:57:07.581Z,5.23
2018-10-09T04:59:36.094Z,7.40
2018-10-09T05:02:05.701Z,5.10
2018-10-09T05:04:38.530Z,5.33
2018-10-09T05:07:06.982Z,4.40
2018-10-09T05:09:36.361Z,4.47
2018-10-09T05:12:07.883Z,6.20
2018-10-09T05:14:36.312Z,7.47
2018-10-09T05:17:08.587Z,9.00
2018-10-09T05:19:37.707Z,7.17
2018-10-09T05:22:06.363Z,6.53
2018-10-09T05:24:34.849Z,5.33
2018-10-09T05:27:04.328Z,7.10
2018-10-09T05:29:34.948Z,6.67
2018-10-09T05:32:03.383Z,8.73
2018-10-09T05:34:31.864Z,6.30
2018-10-09T05:37:00.095Z,4.83
2018-10-09T05:39:28.637Z,5.50
2018-10-09T05:41:57.129Z,6.63
2018-10-09T05:44:25.954Z,4.37
2018-10-09T05:46:54.981Z,4.83
2018-10-09T05:49:23.391Z,6.53
2018-10-09T05:51:51.739Z,7.43
2018-10-09T05:54:21.588Z,7.67
2018-10-09T05:56:50.128Z,6.07
2018-10-09T05:59:18.930Z,6.63
2018-10-09T06:01:50.253Z,6.10
2018-10-09T06:04:18.718Z,6.03
2018-10-09T06:06:47.235Z,7.63
2018-10-09T06:09:15.710Z,5.90
2018-10-09T06:11:44.495Z,6.17
2018-10-09T06:14:13.443Z,8.13
2018-10-09T06:16:41.900Z,7.13
2018-10-09T06:19:13.139Z,9.40
2018-10-09T06:21:45.529Z,9.80
2018-10-09T06:24:14.464Z,9.87
2018-10-09T06:26:42.881Z,6.37
2018-10-09T06:29:12.620Z,7.90
2018-10-09T06:31:41.211Z,7.70
2018-10-09T06:34:09.676Z,7.40
2018-10-09T06:36:38.273Z,7.00
2018-10-09T06:39:07.886Z,8.70
2018-10-09T06:41:36.332Z,7.03
2018-10-09T06:44:08.725Z,10.47
2018-10-09T06:46:37.197Z,10.37
2018-10-09T06:49:05.692Z,6.57
2018-10-09T06:51:34.442Z,8.50
2018-10-09T06:54:02.946Z,9.10
2018-10-09T06:56:31.564Z,7.80
2018-10-09T06:58:59.918Z,8.27
2018-10-09T07:01:28.428Z,11.40
2018-10-09T07:03:58.854Z,10.97
2018-10-09T07:06:27.219Z,9.00
2018-10-09T07:08:56.104Z,14.00
2018-10-09T07:11:24.592Z,8.53
2018-10-09T07:13:53.274Z,8.67
2018-10-09T07:16:31.997Z,8.43
2018-10-09T07:19:00.361Z,8.80
2018-10-09T07:21:29.351Z,8.97
2018-10-09T07:24:02.728Z,6.83
2018-10-09T07:26:31.464Z,9.17
2018-10-09T07:29:00.609Z,7.50
2018-10-09T07:31:32.911Z,7.80
2018-10-09T07:34:03.312Z,8.17
2018-10-09T07:36:31.788Z,9.47
2018-10-09T07:39:00.282Z,10.23
2018-10-09T07:41:28.997Z,8.07
2018-10-09T07:43:57.526Z,8.73
2018-10-09T07:46:26.373Z,9.83
2018-10-09T07:48:54.985Z,10.40
2018-10-09T07:51:23.537Z,11.07
2018-10-09T07:53:52.110Z,7.73
2018-10-09T07:56:22.138Z,9.90
2018-10-09T07:58:50.539Z,6.90
2018-10-09T08:01:19.473Z,8.10
2018-10-09T08:03:47.852Z,11.60
2018-10-09T08:06:20.614Z,7.80
2018-10-09T08:08:48.999Z,11.30
2018-10-09T08:11:17.348Z,8.93
2018-10-09T08:13:47.518Z,8.33
2018-10-09T08:16:16.016Z,8.20
2018-10-09T08:18:44.372Z,10.73
2018-10-09T08:21:20.024Z,11.37
2018-10-09T08:23:48.509Z,11.43
2018-10-09T08:26:17.526Z,9.40
2018-10-09T08:28:50.684Z,12.43
2018-10-09T08:31:19.886Z,13.10
2018-10-09T08:33:48.631Z,7.80
2018-10-09T08:36:17.445Z,9.07
2018-10-09T08:38:46.012Z,9.33
2018-10-09T08:41:14.452Z,8.23
2018-10-09T08:43:43.019Z,12.30
2018-10-09T08:46:15.270Z,7.63
2018-10-09T08:48:43.700Z,8.77
2018-10-09T08:51:12.836Z,9.13
2018-10-09T08:53:41.413Z,7.90
2018-10-09T08:56:11.483Z,8.90
2018-10-09T08:58:40.258Z,7.67
2018-10-09T09:01:10.342Z,7.73
2018-10-09T09:03:39.768Z,9.57
2018-10-09T09:06:08.387Z,5.87
2018-10-09T09:08:39.125Z,8.03
2018-10-09T09:11:07.727Z,8.30
2018-10-09T09:13:37.092Z,8.53
2018-10-09T09:16:05.722Z,8.10
2018-10-09T09:18:34.085Z,7.60
2018-10-09T09:21:03.064Z,12.53
2018-10-09T09:23:31.404Z,8.77
2018-10-09T09:25:59.902Z,10.00
2018-10-09T09:28:28.287Z,12.40
2018-10-09T09:30:57.013Z,9.50
2018-10-09T09:33:25.458Z,10.40
2018-10-09T09:35:54.041Z,8.30
2018-10-09T09:38:23.522Z,8.07
2018-10-09T09:40:52.352Z,8.03
2018-10-09T09:43:27.113Z,7.20
2018-10-09T09:45:56.954Z,7.00
2018-10-09T09:48:25.353Z,5.57
2018-10-09T09:50:53.930Z,7.43
2018-10-09T09:53:26.822Z,6.93
2018-10-09T09:55:55.221Z,7.87
2018-10-09T09:58:24.475Z,8.63
2018-10-09T10:00:52.965Z,9.07
2018-10-09T10:03:21.473Z,9.00
2018-10-09T10:05:49.936Z,7.93
2018-10-09T10:08:18.436Z,7.33
2018-10-09T10:10:46.959Z,7.30
2018-10-09T10:13:15.986Z,9.10
2018-10-09T10:15:44.853Z,5.37
2018-10-09T10:18:13.509Z,6.70
2018-10-09T10:20:42.070Z,7.30
2018-10-09T10:23:10.675Z,7.90
2018-10-09T10:25:39.096Z,6.50
2018-10-09T10:28:08.682Z,8.07
2018-10-09T10:30:38.093Z,5.10
2018-10-09T10:33:09.055Z,6.73
2018-10-09T10:35:37.770Z,7.80
2018-10-09T10:38:07.920Z,8.37
2018-10-09T10:40:36.457Z,6.53
2018-10-09T10:43:04.873Z,7.33
2018-10-09T10:45:33.908Z,6.93
2018-10-09T10:48:03.144Z,5.20
2018-10-09T10:50:32.167Z,7.37
2018-10-09T10:53:02.033Z,7.60
2018-10-09T10:55:30.637Z,6.57
2018-10-09T10:57:59.197Z,5.97
2018-10-09T11:00:28.105Z,5.80
2018-10-09T11:02:57.781Z,5.97
2018-10-09T11:05:26.304Z,4.70
2018-10-09T11:07:55.396Z,4.87
2018-10-09T11:10:27.320Z,5.80
2018-10-09T11:12:55.685Z,4.90
2018-10-09T11:15:24.036Z,4.77
2018-10-09T11:17:57.516Z,5.97
2018-10-09T11:20:26.009Z,5.80
2018-10-09T11:22:54.488Z,5.87
2018-10-09T11:25:22.970Z,6.57
2018-10-09T11:27:52.440Z,5.50
2018-10-09T11:30:20.852Z,6.17
2018-10-09T11:32:50.769Z,8.00
2018-10-09T11:35:19.257Z,5.33
2018-10-09T11:37:50.805Z,7.20
2018-10-09T11:40:19.289Z,6.57
2018-10-09T11:42:47.791Z,6.37
2018-10-09T11:45:20.784Z,9.13
2018-10-09T11:47:49.764Z,6.30
2018-10-09T11:50:18.377Z,5.90
2018-10-09T11:52:46.857Z,5.17
2018-10-09T11:55:15.403Z,5.63
2018-10-09T11:57:45.729Z,5.30
2018-10-09T12:00:14.204Z,9.53
2018-10-09T12:02:44.101Z,5.47
2018-10-09T12:05:12.436Z,5.97
2018-10-09T12:07:40.982Z,4.93
2018-10-09T12:10:10.133Z,5.73
2018-10-09T12:12:40.661Z,7.77
2018-10-09T12:15:09.224Z,6.37
2018-10-09T12:17:37.876Z,9.17
2018-10-09T12:20:06.760Z,5.50
2018-10-09T12:22:35.810Z,6.83
2018-10-09T12:25:05.070Z,6.73
2018-10-09T12:27:33.653Z,5.30
2018-10-09T12:30:02.380Z,6.00
2018-10-09T12:32:32.793Z,5.20
2018-10-09T12:35:01.344Z,6.43
2018-10-09T12:37:33.385Z,6.93
2018-10-09T12:40:03.677Z,5.97
2018-10-09T12:42:32.212Z,6.40
2018-10-09T12:45:00.701Z,5.20
2018-10-09T12:47:30.085Z,7.87
2018-10-09T12:49:59.658Z,5.83
2018-10-09T12:52:28.193Z,5.93
2018-10-09T12:54:56.998Z,6.90
2018-10-09T12:57:25.456Z,4.97
2018-10-09T12:59:54.385Z,5.20
2018-10-09T13:02:22.934Z,7.30
2018-10-09T13:04:51.409Z,8.10
2018-10-09T13:07:20.921Z,8.23
2018-10-09T13:09:49.401Z,6.30
2018-10-09T13:12:17.775Z,5.00
2018-10-09T13:14:46.486Z,5.33
2018-10-09T13:17:15.148Z,4.67
2018-10-09T13:19:43.684Z,5.57
2018-10-09T13:22:12.563Z,5.23
2018-10-09T13:24:41.136Z,6.37
2018-10-09T13:27:10.136Z,5.60
2018-10-09T13:29:38.580Z,5.27
2018-10-09T13:32:15.241Z,5.43
2018-10-09T13:34:43.665Z,4.33
2018-10-09T13:37:12.121Z,5.60
2018-10-09T13:39:41.309Z,4.80
2018-10-09T13:42:09.805Z,5.87
2018-10-09T13:44:38.293Z,5.00
2018-10-09T13:47:06.806Z,5.23
2018-10-09T13:49:35.358Z,4.63
2018-10-09T13:52:03.867Z,5.00
2018-10-09T13:54:32.708Z,4.83
2018-10-09T13:57:01.285Z,4.30
2018-10-09T13:59:32.965Z,4.50
2018-10-09T14:02:01.925Z,7.00
2018-10-09T14:04:30.401Z,4.40
2018-10-09T14:06:59.352Z,4.87
2018-10-09T14:09:27.908Z,4.60
2018-10-09T14:11:56.914Z,4.70
2018-10-09T14:14:26.065Z,4.47
2018-10-09T14:16:54.461Z,4.33
2018-10-09T14:19:24.301Z,4.20
2018-10-09T14:21:52.786Z,4.30
2018-10-09T14:24:27.777Z,5.10
2018-10-09T14:26:56.883Z,6.07
2018-10-09T14:29:25.418Z,5.90
2018-10-09T14:31:54.024Z,5.47
2018-10-09T14:34:28.457Z,6.43
2018-10-09T14:37:02.370Z,4.47
2018-10-09T14:39:30.728Z,5.33
2018-10-09T14:42:01.612Z,4.77
2018-10-09T14:44:31.285Z,4.23
2018-10-09T14:47:01.673Z,4.50
2018-10-09T14:49:30.092Z,4.93
2018-10-09T14:51:58.438Z,6.00
2018-10-09T14:54:27.973Z,4.43
2018-10-09T14:56:56.920Z,4.47
2018-10-09T14:59:26.917Z,4.57
2018-10-09T15:01:55.289Z,5.90
2018-10-09T15:04:23.849Z,4.93
2018-10-09T15:06:52.973Z,4.20
2018-10-09T15:09:21.410Z,4.90
2018-10-09T15:11:50.087Z,8.70
2018-10-09T15:14:18.394Z,4.33
2018-10-09T15:16:46.873Z,4.40
2018-10-09T15:19:15.221Z,4.37
2018-10-09T15:21:45.675Z,5.20
2018-10-09T15:24:14.144Z,5.40
2018-10-09T15:26:42.622Z,4.63
2018-10-09T15:29:12.035Z,4.00
2018-10-09T15:31:44.973Z,4.57
2018-10-09T15:34:13.467Z,7.53
2018-10-09T15:36:42.769Z,4.20
2018-10-09T15:39:12.204Z,5.57
2018-10-09T15:41:41.224Z,4.23
2018-10-09T15:44:09.869Z,3.90
2018-10-09T15:46:39.164Z,4.40
2018-10-09T15:49:07.722Z,4.43
2018-10-09T15:51:38.834Z,4.20
2018-10-09T15:54:08.199Z,5.27
2018-10-09T15:56:36.601Z,4.77
2018-10-09T15:59:09.032Z,3.67
2018-10-09T16:01:39.308Z,3.80
2018-10-09T16:04:07.876Z,4.60
2018-10-09T16:06:36.713Z,4.63
2018-10-09T16:09:07.432Z,4.00
2018-10-09T16:11:36.358Z,4.20
2018-10-09T16:14:04.917Z,3.93
2018-10-09T16:16:33.325Z,4.83
2018-10-09T16:19:02.241Z,4.40
2018-10-09T16:21:30.692Z,4.57
2018-10-09T16:23:59.541Z,5.77
2018-10-09T16:26:28.133Z,4.47
2018-10-09T16:28:59.420Z,4.70
2018-10-09T16:31:33.127Z,4.40
2018-10-09T16:34:03.714Z,4.27
2018-10-09T16:36:32.221Z,4.30
2018-10-09T16:39:03.328Z,3.77
2018-10-09T16:41:31.868Z,4.60
2018-10-09T16:44:00.644Z,3.80
2018-10-09T16:46:29.117Z,4.23
2018-10-09T16:48:57.593Z,4.60
2018-10-09T16:51:26.107Z,4.07
2018-10-09T16:53:54.753Z,3.80
2018-10-09T16:56:26.248Z,5.60
2018-10-09T16:58:54.828Z,4.30
2018-10-09T17:01:23.400Z,5.00
2018-10-09T17:03:51.733Z,3.83
2018-10-09T17:06:20.092Z,4.30
2018-10-09T17:08:48.460Z,3.87
2018-10-09T17:11:17.925Z,3.90
2018-10-09T17:13:53.757Z,4.53
2018-10-09T17:16:24.468Z,4.30
2018-10-09T17:18:52.840Z,4.10
2018-10-09T17:21:21.277Z,3.80
2018-10-09T17:23:49.608Z,4.37
2018-10-09T17:26:18.691Z,3.77
2018-10-09T17:28:47.856Z,3.93
2018-10-09T17:31:23.168Z,3.83
2018-10-09T17:33:57.620Z,4.30
2018-10-09T17:36:26.005Z,4.10
2018-10-09T17:38:56.402Z,4.53
2018-10-09T17:41:24.807Z,3.60
2018-10-09T17:43:53.265Z,5.60
2018-10-09T17:46:22.281Z,4.00
2018-10-09T17:48:58.001Z,6.57
2018-10-09T17:51:26.642Z,4.33
2018-10-09T17:53:55.442Z,5.33
2018-10-09T17:56:23.769Z,4.00
2018-10-09T17:58:52.102Z,4.07
2018-10-09T18:01:20.501Z,4.97
2018-10-09T18:03:49.430Z,4.10
2018-10-09T18:06:18.346Z,5.43
2018-10-09T18:08:49.446Z,3.97
2018-10-09T18:11:17.494Z,4.53
2018-10-09T18:13:51.097Z,3.97
2018-10-09T18:16:19.629Z,4.60
2018-10-09T18:18:47.961Z,4.20
2018-10-09T18:21:16.681Z,3.80
2018-10-09T18:23:45.981Z,4.57
2018-10-09T18:26:14.319Z,4.37
2018-10-09T18:28:42.700Z,5.67
2018-10-09T18:31:11.053Z,5.03
2018-10-09T18:33:40.359Z,4.20
2018-10-09T18:36:09.504Z,4.63
2018-10-09T18:38:39.081Z,4.70
2018-10-09T18:41:08.206Z,5.27
2018-10-09T18:43:36.605Z,4.27
2018-10-09T18:46:05.676Z,5.03
2018-10-09T18:48:34.408Z,4.60
2018-10-09T18:51:02.978Z,4.17
2018-10-09T18:53:31.605Z,5.57
2018-10-09T18:56:00.272Z,8.80
2018-10-09T18:58:28.713Z,4.40
2018-10-09T19:00:59.639Z,4.20
2018-10-09T19:03:29.371Z,4.73
2018-10-09T19:05:57.853Z,5.13
2018-10-09T19:08:27.393Z,5.50
2018-10-09T19:10:55.877Z,4.60
2018-10-09T19:13:24.161Z,11.43
2018-10-09T19:15:52.967Z,4.77
2018-10-09T19:18:21.794Z,4.60
2018-10-09T19:20:52.488Z,5.33
2018-10-09T19:23:21.049Z,7.00
2018-10-09T19:25:49.493Z,5.80
2018-10-09T19:28:18.554Z,5.80
2018-10-09T19:30:47.458Z,4.70
2018-10-09T19:33:16.003Z,13.00
2018-10-09T19:35:45.407Z,5.97
2018-10-09T19:38:15.842Z,6.73
2018-10-09T19:40:44.550Z,5.57
2018-10-09T19:43:15.033Z,6.13
2018-10-09T19:45:43.609Z,5.90
2018-10-09T19:48:15.864Z,5.33
2018-10-09T19:50:44.759Z,9.97
2018-10-09T19:53:14.775Z,5.70
2018-10-09T19:55:45.432Z,7.43
2018-10-09T19:58:14.457Z,5.60
2018-10-09T20:00:42.796Z,5.63
2018-10-09T20:03:11.254Z,6.90
2018-10-09T20:05:39.654Z,9.10
2018-10-09T20:08:08.850Z,6.00
2018-10-09T20:10:38.989Z,6.50
2018-10-09T20:13:07.377Z,5.47
2018-10-09T20:15:35.711Z,6.03
2018-10-09T20:18:04.860Z,7.33
2018-10-09T20:20:33.209Z,6.17
2018-10-09T20:23:01.541Z,5.73
2018-10-09T20:25:30.055Z,7.10
2018-10-09T20:27:58.523Z,7.20
2018-10-09T20:30:27.073Z,5.70
2018-10-09T20:32:56.650Z,7.47
2018-10-09T20:35:25.471Z,6.03
2018-10-09T20:37:53.889Z,8.50
2018-10-09T20:40:22.372Z,5.33
2018-10-09T20:42:50.706Z,7.20
2018-10-09T20:45:19.374Z,6.20
2018-10-09T20:47:48.529Z,7.20
2018-10-09T20:50:17.110Z,9.57
2018-10-09T20:52:51.791Z,9.17
2018-10-09T20:55:20.140Z,6.03
2018-10-09T20:57:48.601Z,7.90
2018-10-09T21:00:17.298Z,8.03
2018-10-09T21:02:52.504Z,6.43
2018-10-09T21:05:23.729Z,7.33
2018-10-09T21:07:57.203Z,9.03
2018-10-09T21:10:26.943Z,7.10
2018-10-09T21:12:55.470Z,6.83
2018-10-09T21:15:27.412Z,6.93
2018-10-09T21:17:58.090Z,7.43
2018-10-09T21:20:28.005Z,9.00
2018-10-09T21:22:56.464Z,8.00
2018-10-09T21:25:27.175Z,6.67
2018-10-09T21:27:55.862Z,9.47
2018-10-09T21:30:24.386Z,7.60
2018-10-09T21:32:57.487Z,6.43
2018-10-09T21:35:26.245Z,8.63
2018-10-09T21:38:00.089Z,6.87
2018-10-09T21:40:28.544Z,7.07
2018-10-09T21:42:57.265Z,7.57
2018-10-09T21:45:26.379Z,6.90
2018-10-09T21:48:03.905Z,8.93
2018-10-09T21:50:32.243Z,7.17
2018-10-09T21:53:00.721Z,7.80
2018-10-09T21:55:36.793Z,9.60
2018-10-09T21:58:05.355Z,6.77
2018-10-09T22:00:39.104Z,7.30
2018-10-09T22:03:09.661Z,7.10
2018-10-09T22:05:39.949Z,8.70
2018-10-09T22:08:08.453Z,8.17
2018-10-09T22:10:38.723Z,8.03
2018-10-09T22:13:07.429Z,7.27
2018-10-09T22:15:36.371Z,10.00
2018-10-09T22:18:04.701Z,9.03
2018-10-09T22:20:33.058Z,7.63
2018-10-09T22:23:01.389Z,8.17
2018-10-09T22:25:30.441Z,7.93
2018-10-09T22:27:59.752Z,7.10
2018-10-09T22:30:30.579Z,7.10
2018-10-09T22:32:59.108Z,7.53
2018-10-09T22:35:28.605Z,9.20
2018-10-09T22:37:57.183Z,8.10
2018-10-09T22:40:26.437Z,7.17
2018-10-09T22:42:55.798Z,11.40
2018-10-09T22:45:24.793Z,7.90
2018-10-09T22:47:57.279Z,7.13
2018-10-09T22:50:25.747Z,8.10
2018-10-09T22:52:58.256Z,10.97
2018-10-09T22:55:28.293Z,9.80
2018-10-09T22:57:56.928Z,8.60
2018-10-09T23:00:25.413Z,8.30
2018-10-09T23:02:54.213Z,8.83
2018-10-09T23:05:23.133Z,9.33
2018-10-09T23:07:52.302Z,8.70
2018-10-09T23:10:20.771Z,8.07
2018-10-09T23:12:49.279Z,8.60
2018-10-09T23:15:17.749Z,9.97
2018-10-09T23:17:46.276Z,9.20
2018-10-09T23:20:14.705Z,8.70
2018-10-09T23:22:43.333Z,8.37
2018-10-09T23:25:11.805Z,8.70
2018-10-09T23:27:41.212Z,8.77
2018-10-09T23:30:10.069Z,9.20
2018-10-09T23:32:38.465Z,12.27
2018-10-09T23:35:09.886Z,8.90
2018-10-09T23:37:39.206Z,9.70
2018-10-09T23:40:11.110Z,11.70
2018-10-09T23:42:39.852Z,9.00
2018-10-09T23:45:08.560Z,11.83
2018-10-09T23:47:36.928Z,9.93
2018-10-09T23:50:07.063Z,11.73
2018-10-09T23:52:35.772Z,10.37
2018-10-09T23:55:04.130Z,10.03
2018-10-09T23:57:33.891Z,9.70
